Terminal Aerodrome Forecast
Issued by NWS

Home | Current Version | Previous Version | Text Only | Print | Product List | Glossary On
Versions: 1 2 3 4 5 6 7 8 9 10 11 12 13 14 15 16 17 18 19 20 21 22 23 24
000
FTUS43 KGRB 192300
TAFATW
TAF
KATW 192323Z 2000/2024 VRB03KT P6SM BKN022
      TEMPO 2000/2002 SCT025
     FM200700 20004KT 5SM BR OVC012
     FM201500 18004KT P6SM OVC018=

USA.gov is the U.S. government's official web portal to all federal, state and local government web resources and services.